sensor_id;sensor_type;location;lat;lon;timestamp;temperature;humidity
12839;DHT22;6486;51.034;5.262;2023-04-03T00:01:34;5.00;71.00
12839;DHT22;6486;51.034;5.262;2023-04-03T00:04:00;5.00;71.10
12839;DHT22;6486;51.034;5.262;2023-04-03T00:06:26;5.00;71.80
12839;DHT22;6486;51.034;5.262;2023-04-03T00:08:52;5.00;71.20
12839;DHT22;6486;51.034;5.262;2023-04-03T00:11:18;5.00;71.20
12839;DHT22;6486;51.034;5.262;2023-04-03T00:13:44;5.00;71.20
12839;DHT22;6486;51.034;5.262;2023-04-03T00:16:11;5.00;71.10
12839;DHT22;6486;51.034;5.262;2023-04-03T00:18:37;5.00;71.10
12839;DHT22;6486;51.034;5.262;2023-04-03T00:21:04;4.90;71.00
12839;DHT22;6486;51.034;5.262;2023-04-03T00:23:29;4.90;71.00
12839;DHT22;6486;51.034;5.262;2023-04-03T00:25:55;4.90;71.00
12839;DHT22;6486;51.034;5.262;2023-04-03T00:28:21;4.90;71.20
12839;DHT22;6486;51.034;5.262;2023-04-03T00:30:49;4.90;71.20
12839;DHT22;6486;51.034;5.262;2023-04-03T00:33:15;4.90;71.20
12839;DHT22;6486;51.034;5.262;2023-04-03T00:35:41;4.80;71.20
12839;DHT22;6486;51.034;5.262;2023-04-03T00:38:06;4.80;71.20
12839;DHT22;6486;51.034;5.262;2023-04-03T00:40:38;4.80;71.20
12839;DHT22;6486;51.034;5.262;2023-04-03T00:43:18;4.80;71.20
12839;DHT22;6486;51.034;5.262;2023-04-03T00:45:46;4.70;71.20
12839;DHT22;6486;51.034;5.262;2023-04-03T00:48:34;4.70;71.20
12839;DHT22;6486;51.034;5.262;2023-04-03T00:51:03;4.70;71.20
12839;DHT22;6486;51.034;5.262;2023-04-03T00:53:40;4.70;71.20
12839;DHT22;6486;51.034;5.262;2023-04-03T00:56:09;4.60;71.20
12839;DHT22;6486;51.034;5.262;2023-04-03T00:58:51;4.60;71.20
12839;DHT22;6486;51.034;5.262;2023-04-03T01:01:22;4.60;71.30
12839;DHT22;6486;51.034;5.262;2023-04-03T01:03:48;4.50;71.30
12839;DHT22;6486;51.034;5.262;2023-04-03T01:06:16;4.50;71.30
12839;DHT22;6486;51.034;5.262;2023-04-03T01:08:42;4.50;71.40
12839;DHT22;6486;51.034;5.262;2023-04-03T01:11:08;4.50;71.40
12839;DHT22;6486;51.034;5.262;2023-04-03T01:13:34;4.40;71.40
12839;DHT22;6486;51.034;5.262;2023-04-03T01:16:04;4.40;71.40
12839;DHT22;6486;51.034;5.262;2023-04-03T01:18:31;4.40;71.40
12839;DHT22;6486;51.034;5.262;2023-04-03T01:23:43;4.40;71.40
12839;DHT22;6486;51.034;5.262;2023-04-03T01:26:12;4.40;71.50
12839;DHT22;6486;51.034;5.262;2023-04-03T01:28:38;4.40;71.50
12839;DHT22;6486;51.034;5.262;2023-04-03T01:33:44;4.40;71.60
12839;DHT22;6486;51.034;5.262;2023-04-03T01:36:19;4.30;71.50
12839;DHT22;6486;51.034;5.262;2023-04-03T01:38:44;4.30;71.50
12839;DHT22;6486;51.034;5.262;2023-04-03T01:41:10;4.30;71.50
12839;DHT22;6486;51.034;5.262;2023-04-03T01:43:36;4.30;71.50
12839;DHT22;6486;51.034;5.262;2023-04-03T01:46:01;4.30;71.50
12839;DHT22;6486;51.034;5.262;2023-04-03T01:48:27;4.30;71.50
12839;DHT22;6486;51.034;5.262;2023-04-03T01:50:53;4.30;71.50
12839;DHT22;6486;51.034;5.262;2023-04-03T01:53:19;4.30;71.50
12839;DHT22;6486;51.034;5.262;2023-04-03T01:55:45;4.20;71.50
12839;DHT22;6486;51.034;5.262;2023-04-03T01:58:10;4.20;71.50
12839;DHT22;6486;51.034;5.262;2023-04-03T02:00:36;4.20;71.60
12839;DHT22;6486;51.034;5.262;2023-04-03T02:03:02;4.20;71.60
12839;DHT22;6486;51.034;5.262;2023-04-03T02:05:28;4.20;71.60
12839;DHT22;6486;51.034;5.262;2023-04-03T02:07:54;4.20;71.60
12839;DHT22;6486;51.034;5.262;2023-04-03T02:10:20;4.10;71.60
12839;DHT22;6486;51.034;5.262;2023-04-03T02:12:45;4.10;71.60
12839;DHT22;6486;51.034;5.262;2023-04-03T02:15:11;4.10;71.70
12839;DHT22;6486;51.034;5.262;2023-04-03T02:17:37;4.10;71.60
12839;DHT22;6486;51.034;5.262;2023-04-03T02:20:03;4.10;71.70
12839;DHT22;6486;51.034;5.262;2023-04-03T02:22:29;4.10;71.70
12839;DHT22;6486;51.034;5.262;2023-04-03T02:24:55;4.00;71.70
12839;DHT22;6486;51.034;5.262;2023-04-03T02:27:20;4.00;71.70
12839;DHT22;6486;51.034;5.262;2023-04-03T02:29:46;4.00;71.80
12839;DHT22;6486;51.034;5.262;2023-04-03T02:32:12;4.00;71.80
12839;DHT22;6486;51.034;5.262;2023-04-03T02:34:37;4.00;71.90
12839;DHT22;6486;51.034;5.262;2023-04-03T02:37:03;4.00;71.80
12839;DHT22;6486;51.034;5.262;2023-04-03T02:39:29;3.90;72.30
12839;DHT22;6486;51.034;5.262;2023-04-03T02:41:54;3.90;71.50
12839;DHT22;6486;51.034;5.262;2023-04-03T02:44:20;3.90;71.50
12839;DHT22;6486;51.034;5.262;2023-04-03T02:46:45;3.90;71.50
12839;DHT22;6486;51.034;5.262;2023-04-03T02:49:11;3.90;71.50
12839;DHT22;6486;51.034;5.262;2023-04-03T02:51:37;3.90;71.60
12839;DHT22;6486;51.034;5.262;2023-04-03T02:54:03;3.80;71.50
12839;DHT22;6486;51.034;5.262;2023-04-03T02:56:28;3.80;71.50
12839;DHT22;6486;51.034;5.262;2023-04-03T02:58:54;3.80;71.70
12839;DHT22;6486;51.034;5.262;2023-04-03T03:01:20;3.80;71.70
12839;DHT22;6486;51.034;5.262;2023-04-03T03:03:46;3.70;71.70
12839;DHT22;6486;51.034;5.262;2023-04-03T03:06:14;3.70;71.80
12839;DHT22;6486;51.034;5.262;2023-04-03T03:08:41;3.70;71.90
12839;DHT22;6486;51.034;5.262;2023-04-03T03:11:07;3.70;71.90
12839;DHT22;6486;51.034;5.262;2023-04-03T03:13:33;3.70;72.00
12839;DHT22;6486;51.034;5.262;2023-04-03T03:15:59;3.70;72.00
12839;DHT22;6486;51.034;5.262;2023-04-03T03:18:25;3.60;71.90
12839;DHT22;6486;51.034;5.262;2023-04-03T03:20:55;3.60;71.70
12839;DHT22;6486;51.034;5.262;2023-04-03T03:23:23;3.60;71.70
12839;DHT22;6486;51.034;5.262;2023-04-03T03:25:58;3.60;71.70
12839;DHT22;6486;51.034;5.262;2023-04-03T03:28:24;3.50;71.80
12839;DHT22;6486;51.034;5.262;2023-04-03T03:30:49;3.50;71.90
12839;DHT22;6486;51.034;5.262;2023-04-03T03:33:15;3.50;72.00
12839;DHT22;6486;51.034;5.262;2023-04-03T03:35:42;3.50;72.00
12839;DHT22;6486;51.034;5.262;2023-04-03T03:38:08;3.50;72.80
12839;DHT22;6486;51.034;5.262;2023-04-03T03:40:34;3.60;72.10
12839;DHT22;6486;51.034;5.262;2023-04-03T03:42:59;3.50;72.10
12839;DHT22;6486;51.034;5.262;2023-04-03T03:45:25;3.50;72.10
12839;DHT22;6486;51.034;5.262;2023-04-03T03:47:50;3.50;72.10
12839;DHT22;6486;51.034;5.262;2023-04-03T03:50:16;3.40;72.10
12839;DHT22;6486;51.034;5.262;2023-04-03T03:52:42;3.50;72.20
12839;DHT22;6486;51.034;5.262;2023-04-03T03:55:07;3.40;72.10
12839;DHT22;6486;51.034;5.262;2023-04-03T03:57:33;3.40;72.10
12839;DHT22;6486;51.034;5.262;2023-04-03T03:59:59;3.40;72.10
12839;DHT22;6486;51.034;5.262;2023-04-03T04:02:24;3.40;72.20
12839;DHT22;6486;51.034;5.262;2023-04-03T04:04:50;3.40;72.20
12839;DHT22;6486;51.034;5.262;2023-04-03T04:07:15;3.30;72.30
12839;DHT22;6486;51.034;5.262;2023-04-03T04:09:41;3.30;72.40
12839;DHT22;6486;51.034;5.262;2023-04-03T04:12:07;3.30;72.50
12839;DHT22;6486;51.034;5.262;2023-04-03T04:14:32;3.30;72.50
12839;DHT22;6486;51.034;5.262;2023-04-03T04:16:58;3.30;72.60
12839;DHT22;6486;51.034;5.262;2023-04-03T04:19:23;3.30;72.60
12839;DHT22;6486;51.034;5.262;2023-04-03T04:21:49;3.30;72.70
12839;DHT22;6486;51.034;5.262;2023-04-03T04:24:15;3.20;72.70
12839;DHT22;6486;51.034;5.262;2023-04-03T04:26:41;3.20;72.60
12839;DHT22;6486;51.034;5.262;2023-04-03T04:29:09;3.20;72.60
12839;DHT22;6486;51.034;5.262;2023-04-03T04:31:35;3.20;72.60
12839;DHT22;6486;51.034;5.262;2023-04-03T04:34:01;3.30;72.60
12839;DHT22;6486;51.034;5.262;2023-04-03T04:36:26;3.30;72.60
12839;DHT22;6486;51.034;5.262;2023-04-03T04:38:52;3.30;72.60
12839;DHT22;6486;51.034;5.262;2023-04-03T04:41:20;3.20;72.50
12839;DHT22;6486;51.034;5.262;2023-04-03T04:43:49;3.20;72.50
12839;DHT22;6486;51.034;5.262;2023-04-03T04:46:15;3.20;72.50
12839;DHT22;6486;51.034;5.262;2023-04-03T04:48:40;3.20;72.50
12839;DHT22;6486;51.034;5.262;2023-04-03T04:51:06;3.20;72.40
12839;DHT22;6486;51.034;5.262;2023-04-03T04:53:32;3.20;72.40
12839;DHT22;6486;51.034;5.262;2023-04-03T04:55:58;3.20;72.50
12839;DHT22;6486;51.034;5.262;2023-04-03T04:58:23;3.20;72.50
12839;DHT22;6486;51.034;5.262;2023-04-03T05:00:49;3.20;72.50
12839;DHT22;6486;51.034;5.262;2023-04-03T05:03:15;3.10;72.40
12839;DHT22;6486;51.034;5.262;2023-04-03T05:05:41;3.10;72.40
12839;DHT22;6486;51.034;5.262;2023-04-03T05:08:06;3.10;72.40
12839;DHT22;6486;51.034;5.262;2023-04-03T05:10:33;3.10;73.10
12839;DHT22;6486;51.034;5.262;2023-04-03T05:12:59;3.10;72.50
12839;DHT22;6486;51.034;5.262;2023-04-03T05:15:25;3.10;72.50
12839;DHT22;6486;51.034;5.262;2023-04-03T05:17:50;3.10;72.50
12839;DHT22;6486;51.034;5.262;2023-04-03T05:20:17;3.00;72.40
12839;DHT22;6486;51.034;5.262;2023-04-03T05:22:42;3.10;72.50
12839;DHT22;6486;51.034;5.262;2023-04-03T05:25:09;3.00;72.50
12839;DHT22;6486;51.034;5.262;2023-04-03T05:27:35;2.90;72.60
12839;DHT22;6486;51.034;5.262;2023-04-03T05:30:02;3.00;72.70
12839;DHT22;6486;51.034;5.262;2023-04-03T05:32:28;2.90;72.70
12839;DHT22;6486;51.034;5.262;2023-04-03T05:34:54;3.00;72.80
12839;DHT22;6486;51.034;5.262;2023-04-03T05:37:20;2.90;72.80
12839;DHT22;6486;51.034;5.262;2023-04-03T05:39:45;3.00;72.80
12839;DHT22;6486;51.034;5.262;2023-04-03T05:42:11;3.00;72.80
12839;DHT22;6486;51.034;5.262;2023-04-03T05:44:38;3.00;72.90
12839;DHT22;6486;51.034;5.262;2023-04-03T05:47:04;3.00;72.90
12839;DHT22;6486;51.034;5.262;2023-04-03T05:49:31;3.10;73.10
12839;DHT22;6486;51.034;5.262;2023-04-03T05:51:57;3.10;73.10
12839;DHT22;6486;51.034;5.262;2023-04-03T05:54:28;3.20;73.20
12839;DHT22;6486;51.034;5.262;2023-04-03T05:56:54;3.20;73.90
12839;DHT22;6486;51.034;5.262;2023-04-03T05:59:20;3.30;73.40
12839;DHT22;6486;51.034;5.262;2023-04-03T06:01:47;3.30;73.50
12839;DHT22;6486;51.034;5.262;2023-04-03T06:04:13;3.30;73.50
12839;DHT22;6486;51.034;5.262;2023-04-03T06:06:51;3.40;73.70
12839;DHT22;6486;51.034;5.262;2023-04-03T06:09:18;3.40;73.80
12839;DHT22;6486;51.034;5.262;2023-04-03T06:11:44;3.50;73.80
12839;DHT22;6486;51.034;5.262;2023-04-03T06:14:10;3.50;73.90
12839;DHT22;6486;51.034;5.262;2023-04-03T06:16:36;3.50;73.90
12839;DHT22;6486;51.034;5.262;2023-04-03T06:19:02;3.60;73.90
12839;DHT22;6486;51.034;5.262;2023-04-03T06:21:29;3.70;74.00
12839;DHT22;6486;51.034;5.262;2023-04-03T06:23:55;3.70;73.90
12839;DHT22;6486;51.034;5.262;2023-04-03T06:26:21;3.80;74.00
12839;DHT22;6486;51.034;5.262;2023-04-03T06:28:47;3.80;73.80
12839;DHT22;6486;51.034;5.262;2023-04-03T06:31:13;3.90;73.90
12839;DHT22;6486;51.034;5.262;2023-04-03T06:33:39;4.00;73.80
12839;DHT22;6486;51.034;5.262;2023-04-03T06:36:05;4.00;74.40
12839;DHT22;6486;51.034;5.262;2023-04-03T06:38:32;4.10;73.80
12839;DHT22;6486;51.034;5.262;2023-04-03T06:40:58;4.20;73.80
12839;DHT22;6486;51.034;5.262;2023-04-03T06:43:24;4.30;73.80
12839;DHT22;6486;51.034;5.262;2023-04-03T06:45:50;4.30;73.60
12839;DHT22;6486;51.034;5.262;2023-04-03T06:48:16;4.40;73.60
12839;DHT22;6486;51.034;5.262;2023-04-03T06:50:42;4.50;73.60
12839;DHT22;6486;51.034;5.262;2023-04-03T06:53:08;4.50;73.60
12839;DHT22;6486;51.034;5.262;2023-04-03T06:55:34;4.60;73.60
12839;DHT22;6486;51.034;5.262;2023-04-03T06:58:00;4.60;73.50
12839;DHT22;6486;51.034;5.262;2023-04-03T07:00:25;4.70;73.40
12839;DHT22;6486;51.034;5.262;2023-04-03T07:02:51;4.80;73.50
12839;DHT22;6486;51.034;5.262;2023-04-03T07:05:17;4.80;73.30
12839;DHT22;6486;51.034;5.262;2023-04-03T07:07:43;4.90;73.30
12839;DHT22;6486;51.034;5.262;2023-04-03T07:10:09;5.00;73.20
12839;DHT22;6486;51.034;5.262;2023-04-03T07:12:35;5.10;73.10
12839;DHT22;6486;51.034;5.262;2023-04-03T07:15:01;5.20;73.60
12839;DHT22;6486;51.034;5.262;2023-04-03T07:17:26;5.30;72.90
12839;DHT22;6486;51.034;5.262;2023-04-03T07:19:52;5.40;72.80
12839;DHT22;6486;51.034;5.262;2023-04-03T07:22:18;5.40;72.60
12839;DHT22;6486;51.034;5.262;2023-04-03T07:24:44;5.50;72.60
12839;DHT22;6486;51.034;5.262;2023-04-03T07:27:09;5.60;72.60
12839;DHT22;6486;51.034;5.262;2023-04-03T07:29:36;5.70;72.40
12839;DHT22;6486;51.034;5.262;2023-04-03T07:32:02;5.80;72.20
12839;DHT22;6486;51.034;5.262;2023-04-03T07:34:28;5.90;72.00
12839;DHT22;6486;51.034;5.262;2023-04-03T07:36:53;6.10;72.70
12839;DHT22;6486;51.034;5.262;2023-04-03T07:39:19;6.10;71.60
12839;DHT22;6486;51.034;5.262;2023-04-03T07:41:45;6.20;71.50
12839;DHT22;6486;51.034;5.262;2023-04-03T07:44:11;6.30;71.40
12839;DHT22;6486;51.034;5.262;2023-04-03T07:46:37;6.50;71.40
12839;DHT22;6486;51.034;5.262;2023-04-03T07:49:03;6.60;71.30
12839;DHT22;6486;51.034;5.262;2023-04-03T07:51:28;6.70;70.80
12839;DHT22;6486;51.034;5.262;2023-04-03T07:53:55;6.80;70.70
12839;DHT22;6486;51.034;5.262;2023-04-03T07:56:21;6.80;70.50
12839;DHT22;6486;51.034;5.262;2023-04-03T07:58:46;7.00;70.50
12839;DHT22;6486;51.034;5.262;2023-04-03T08:01:12;7.10;70.20
12839;DHT22;6486;51.034;5.262;2023-04-03T08:03:38;7.20;69.90
12839;DHT22;6486;51.034;5.262;2023-04-03T08:06:06;7.30;69.60
12839;DHT22;6486;51.034;5.262;2023-04-03T08:08:32;7.40;69.50
12839;DHT22;6486;51.034;5.262;2023-04-03T08:10:59;7.60;69.30
12839;DHT22;6486;51.034;5.262;2023-04-03T08:13:25;7.70;69.10
12839;DHT22;6486;51.034;5.262;2023-04-03T08:15:50;7.70;68.60
12839;DHT22;6486;51.034;5.262;2023-04-03T08:18:17;7.90;68.60
12839;DHT22;6486;51.034;5.262;2023-04-03T08:20:44;8.00;68.50
12839;DHT22;6486;51.034;5.262;2023-04-03T08:23:10;8.20;68.40
12839;DHT22;6486;51.034;5.262;2023-04-03T08:25:40;8.30;68.40
12839;DHT22;6486;51.034;5.262;2023-04-03T08:28:06;8.50;68.20
12839;DHT22;6486;51.034;5.262;2023-04-03T08:30:33;8.60;67.80
12839;DHT22;6486;51.034;5.262;2023-04-03T08:33:01;8.70;67.80
12839;DHT22;6486;51.034;5.262;2023-04-03T08:35:27;8.80;67.30
12839;DHT22;6486;51.034;5.262;2023-04-03T08:37:53;8.90;66.90
12839;DHT22;6486;51.034;5.262;2023-04-03T08:40:19;9.00;66.70
12839;DHT22;6486;51.034;5.262;2023-04-03T08:42:53;9.20;66.80
12839;DHT22;6486;51.034;5.262;2023-04-03T08:48:11;9.50;66.50
12839;DHT22;6486;51.034;5.262;2023-04-03T08:50:43;9.60;65.70
12839;DHT22;6486;51.034;5.262;2023-04-03T08:53:25;9.70;65.70
12839;DHT22;6486;51.034;5.262;2023-04-03T08:55:54;9.80;65.70
12839;DHT22;6486;51.034;5.262;2023-04-03T08:58:30;9.90;65.60
12839;DHT22;6486;51.034;5.262;2023-04-03T09:01:17;10.00;64.20
12839;DHT22;6486;51.034;5.262;2023-04-03T09:03:43;10.20;63.90
12839;DHT22;6486;51.034;5.262;2023-04-03T09:06:13;10.30;63.70
12839;DHT22;6486;51.034;5.262;2023-04-03T09:08:45;10.40;64.30
12839;DHT22;6486;51.034;5.262;2023-04-03T09:13:58;10.60;63.20
12839;DHT22;6486;51.034;5.262;2023-04-03T09:16:37;10.80;63.00
12839;DHT22;6486;51.034;5.262;2023-04-03T09:19:20;10.90;62.60
12839;DHT22;6486;51.034;5.262;2023-04-03T09:21:47;11.00;62.20
12839;DHT22;6486;51.034;5.262;2023-04-03T09:24:15;11.20;62.20
12839;DHT22;6486;51.034;5.262;2023-04-03T09:29:22;11.30;61.80
12839;DHT22;6486;51.034;5.262;2023-04-03T09:31:56;11.40;61.80
12839;DHT22;6486;51.034;5.262;2023-04-03T09:34:28;11.60;61.40
12839;DHT22;6486;51.034;5.262;2023-04-03T09:36:57;11.70;61.10
12839;DHT22;6486;51.034;5.262;2023-04-03T09:39:26;11.80;60.10
12839;DHT22;6486;51.034;5.262;2023-04-03T09:41:57;11.80;59.50
12839;DHT22;6486;51.034;5.262;2023-04-03T09:44:26;11.90;58.90
12839;DHT22;6486;51.034;5.262;2023-04-03T09:46:51;11.90;58.00
12839;DHT22;6486;51.034;5.262;2023-04-03T09:49:18;11.90;58.10
12839;DHT22;6486;51.034;5.262;2023-04-03T09:51:45;11.90;58.00
12839;DHT22;6486;51.034;5.262;2023-04-03T09:56:56;12.10;57.40
12839;DHT22;6486;51.034;5.262;2023-04-03T09:59:23;12.20;57.50
12839;DHT22;6486;51.034;5.262;2023-04-03T10:02:02;12.30;57.10
12839;DHT22;6486;51.034;5.262;2023-04-03T10:04:38;12.30;56.10
12839;DHT22;6486;51.034;5.262;2023-04-03T10:07:34;12.30;55.20
12839;DHT22;6486;51.034;5.262;2023-04-03T10:10:22;12.40;55.10
12839;DHT22;6486;51.034;5.262;2023-04-03T10:13:09;12.50;55.10
12839;DHT22;6486;51.034;5.262;2023-04-03T10:24:23;12.90;52.40
12839;DHT22;6486;51.034;5.262;2023-04-03T10:26:57;13.00;51.40
12839;DHT22;6486;51.034;5.262;2023-04-03T10:29:49;13.00;50.80
12839;DHT22;6486;51.034;5.262;2023-04-03T10:41:10;13.30;48.70
12839;DHT22;6486;51.034;5.262;2023-04-03T10:43:54;13.30;47.80
12839;DHT22;6486;51.034;5.262;2023-04-03T10:46:28;13.50;48.00
12839;DHT22;6486;51.034;5.262;2023-04-03T10:52:17;13.70;47.40
12839;DHT22;6486;51.034;5.262;2023-04-03T10:54:57;13.80;47.10
12839;DHT22;6486;51.034;5.262;2023-04-03T10:57:28;13.90;46.20
12839;DHT22;6486;51.034;5.262;2023-04-03T11:00:01;14.00;45.50
12839;DHT22;6486;51.034;5.262;2023-04-03T11:02:28;14.10;45.80
12839;DHT22;6486;51.034;5.262;2023-04-03T11:05:07;14.20;45.70
12839;DHT22;6486;51.034;5.262;2023-04-03T11:07:42;14.30;45.30
12839;DHT22;6486;51.034;5.262;2023-04-03T11:10:25;14.40;45.10
12839;DHT22;6486;51.034;5.262;2023-04-03T11:13:05;14.50;44.30
12839;DHT22;6486;51.034;5.262;2023-04-03T11:15:32;14.70;44.60
12839;DHT22;6486;51.034;5.262;2023-04-03T11:18:04;14.70;44.30
12839;DHT22;6486;51.034;5.262;2023-04-03T11:20:32;14.80;43.60
12839;DHT22;6486;51.034;5.262;2023-04-03T11:25:52;14.90;42.90
12839;DHT22;6486;51.034;5.262;2023-04-03T11:28:19;14.90;42.50
12839;DHT22;6486;51.034;5.262;2023-04-03T11:33:21;15.10;42.10
12839;DHT22;6486;51.034;5.262;2023-04-03T11:35:51;15.10;41.80
12839;DHT22;6486;51.034;5.262;2023-04-03T11:38:25;15.10;41.70
12839;DHT22;6486;51.034;5.262;2023-04-03T11:40:53;15.20;41.00
12839;DHT22;6486;51.034;5.262;2023-04-03T11:43:28;15.20;41.20
12839;DHT22;6486;51.034;5.262;2023-04-03T11:46:03;15.30;41.60
12839;DHT22;6486;51.034;5.262;2023-04-03T11:50:59;15.50;40.80
12839;DHT22;6486;51.034;5.262;2023-04-03T12:04:12;16.00;41.20
12839;DHT22;6486;51.034;5.262;2023-04-03T12:09:29;16.00;39.40
12839;DHT22;6486;51.034;5.262;2023-04-03T12:11:59;16.10;40.20
12839;DHT22;6486;51.034;5.262;2023-04-03T12:14:25;16.20;40.50
12839;DHT22;6486;51.034;5.262;2023-04-03T12:16:57;16.20;39.40
12839;DHT22;6486;51.034;5.262;2023-04-03T12:19:39;16.30;39.90
12839;DHT22;6486;51.034;5.262;2023-04-03T12:22:14;16.40;39.90
12839;DHT22;6486;51.034;5.262;2023-04-03T12:24:43;16.40;40.20
12839;DHT22;6486;51.034;5.262;2023-04-03T12:32:46;16.70;39.00
12839;DHT22;6486;51.034;5.262;2023-04-03T12:35:31;16.70;38.10
12839;DHT22;6486;51.034;5.262;2023-04-03T12:43:37;16.60;37.30
12839;DHT22;6486;51.034;5.262;2023-04-03T12:51:19;16.80;37.60
12839;DHT22;6486;51.034;5.262;2023-04-03T12:53:46;16.80;37.50
12839;DHT22;6486;51.034;5.262;2023-04-03T12:56:28;16.90;37.50
12839;DHT22;6486;51.034;5.262;2023-04-03T12:59:12;16.90;36.80
12839;DHT22;6486;51.034;5.262;2023-04-03T13:01:38;16.80;37.20
12839;DHT22;6486;51.034;5.262;2023-04-03T13:04:03;16.80;36.40
12839;DHT22;6486;51.034;5.262;2023-04-03T13:06:48;16.70;36.60
12839;DHT22;6486;51.034;5.262;2023-04-03T13:09:26;16.80;36.80
12839;DHT22;6486;51.034;5.262;2023-04-03T13:12:17;16.80;36.60
12839;DHT22;6486;51.034;5.262;2023-04-03T13:14:52;16.80;36.10
12839;DHT22;6486;51.034;5.262;2023-04-03T13:17:18;16.80;36.30
12839;DHT22;6486;51.034;5.262;2023-04-03T13:19:45;16.80;36.70
12839;DHT22;6486;51.034;5.262;2023-04-03T13:24:46;16.90;36.70
12839;DHT22;6486;51.034;5.262;2023-04-03T13:27:13;16.90;36.50
12839;DHT22;6486;51.034;5.262;2023-04-03T13:29:39;16.90;36.70
12839;DHT22;6486;51.034;5.262;2023-04-03T13:32:06;16.90;36.70
12839;DHT22;6486;51.034;5.262;2023-04-03T13:34:38;16.90;36.60
12839;DHT22;6486;51.034;5.262;2023-04-03T13:37:06;16.90;36.00
12839;DHT22;6486;51.034;5.262;2023-04-03T13:39:38;16.90;36.00
12839;DHT22;6486;51.034;5.262;2023-04-03T13:42:23;16.80;36.20
12839;DHT22;6486;51.034;5.262;2023-04-03T13:44:49;16.70;35.90
12839;DHT22;6486;51.034;5.262;2023-04-03T13:47:40;16.70;35.40
12839;DHT22;6486;51.034;5.262;2023-04-03T13:50:49;16.80;36.00
12839;DHT22;6486;51.034;5.262;2023-04-03T13:53:10;16.80;36.00
12839;DHT22;6486;51.034;5.262;2023-04-03T13:55:56;16.80;36.30
12839;DHT22;6486;51.034;5.262;2023-04-03T13:58:25;16.90;36.50
12839;DHT22;6486;51.034;5.262;2023-04-03T14:03:40;17.10;36.70
12839;DHT22;6486;51.034;5.262;2023-04-03T14:06:08;17.20;37.00
12839;DHT22;6486;51.034;5.262;2023-04-03T14:08:35;17.20;36.80
12839;DHT22;6486;51.034;5.262;2023-04-03T14:11:01;17.30;36.60
12839;DHT22;6486;51.034;5.262;2023-04-03T14:13:30;17.30;36.20
12839;DHT22;6486;51.034;5.262;2023-04-03T14:15:56;17.30;36.40
12839;DHT22;6486;51.034;5.262;2023-04-03T14:18:21;17.30;35.90
12839;DHT22;6486;51.034;5.262;2023-04-03T14:20:48;17.30;36.20
12839;DHT22;6486;51.034;5.262;2023-04-03T14:23:13;17.40;36.40
12839;DHT22;6486;51.034;5.262;2023-04-03T14:25:40;17.40;36.10
12839;DHT22;6486;51.034;5.262;2023-04-03T14:28:18;17.40;36.30
12839;DHT22;6486;51.034;5.262;2023-04-03T14:30:44;17.50;36.50
12839;DHT22;6486;51.034;5.262;2023-04-03T14:33:17;17.50;36.50
12839;DHT22;6486;51.034;5.262;2023-04-03T14:35:43;17.60;36.10
12839;DHT22;6486;51.034;5.262;2023-04-03T14:38:23;17.60;36.20
12839;DHT22;6486;51.034;5.262;2023-04-03T14:40:49;17.60;35.70
12839;DHT22;6486;51.034;5.262;2023-04-03T14:43:16;17.70;35.50
12839;DHT22;6486;51.034;5.262;2023-04-03T14:45:43;17.70;35.20
12839;DHT22;6486;51.034;5.262;2023-04-03T14:48:16;17.70;35.00
12839;DHT22;6486;51.034;5.262;2023-04-03T14:50:43;17.70;35.20
12839;DHT22;6486;51.034;5.262;2023-04-03T14:53:11;17.70;35.10
12839;DHT22;6486;51.034;5.262;2023-04-03T14:55:38;17.70;35.20
12839;DHT22;6486;51.034;5.262;2023-04-03T14:58:03;17.80;35.20
12839;DHT22;6486;51.034;5.262;2023-04-03T15:00:29;17.80;35.50
12839;DHT22;6486;51.034;5.262;2023-04-03T15:02:55;17.80;34.80
12839;DHT22;6486;51.034;5.262;2023-04-03T15:05:20;17.90;35.00
12839;DHT22;6486;51.034;5.262;2023-04-03T15:07:58;18.00;35.20
12839;DHT22;6486;51.034;5.262;2023-04-03T15:10:28;18.10;35.50
12839;DHT22;6486;51.034;5.262;2023-04-03T15:12:55;18.20;35.60
12839;DHT22;6486;51.034;5.262;2023-04-03T15:15:22;18.20;35.60
12839;DHT22;6486;51.034;5.262;2023-04-03T15:17:54;18.30;35.50
12839;DHT22;6486;51.034;5.262;2023-04-03T15:20:23;18.30;36.10
12839;DHT22;6486;51.034;5.262;2023-04-03T15:22:49;18.50;35.50
12839;DHT22;6486;51.034;5.262;2023-04-03T15:25:15;18.60;35.00
12839;DHT22;6486;51.034;5.262;2023-04-03T15:27:41;18.80;34.90
12839;DHT22;6486;51.034;5.262;2023-04-03T15:30:13;19.00;34.70
12839;DHT22;6486;51.034;5.262;2023-04-03T15:32:39;19.20;34.50
12839;DHT22;6486;51.034;5.262;2023-04-03T15:35:05;19.50;34.40
12839;DHT22;6486;51.034;5.262;2023-04-03T15:37:31;19.80;34.60
12839;DHT22;6486;51.034;5.262;2023-04-03T15:39:56;20.20;34.90
12839;DHT22;6486;51.034;5.262;2023-04-03T15:42:22;20.60;35.10
12839;DHT22;6486;51.034;5.262;2023-04-03T15:44:48;21.00;35.10
12839;DHT22;6486;51.034;5.262;2023-04-03T15:47:13;21.40;34.00
12839;DHT22;6486;51.034;5.262;2023-04-03T15:49:39;21.80;33.90
12839;DHT22;6486;51.034;5.262;2023-04-03T15:52:05;22.30;33.60
12839;DHT22;6486;51.034;5.262;2023-04-03T15:54:30;22.80;32.00
12839;DHT22;6486;51.034;5.262;2023-04-03T15:56:56;23.50;31.80
12839;DHT22;6486;51.034;5.262;2023-04-03T15:59:22;24.20;31.70
12839;DHT22;6486;51.034;5.262;2023-04-03T16:01:49;25.00;30.90
12839;DHT22;6486;51.034;5.262;2023-04-03T16:04:16;25.70;30.30
12839;DHT22;6486;51.034;5.262;2023-04-03T16:06:42;26.50;29.60
12839;DHT22;6486;51.034;5.262;2023-04-03T16:09:08;27.70;28.80
12839;DHT22;6486;51.034;5.262;2023-04-03T16:11:34;29.00;27.50
12839;DHT22;6486;51.034;5.262;2023-04-03T16:14:01;30.40;26.60
12839;DHT22;6486;51.034;5.262;2023-04-03T16:16:27;31.50;25.10
12839;DHT22;6486;51.034;5.262;2023-04-03T16:18:54;32.60;23.70
12839;DHT22;6486;51.034;5.262;2023-04-03T16:21:21;33.50;22.80
12839;DHT22;6486;51.034;5.262;2023-04-03T16:23:47;34.20;21.70
12839;DHT22;6486;51.034;5.262;2023-04-03T16:26:12;34.60;21.00
12839;DHT22;6486;51.034;5.262;2023-04-03T16:28:38;34.90;20.60
12839;DHT22;6486;51.034;5.262;2023-04-03T16:31:05;35.30;20.60
12839;DHT22;6486;51.034;5.262;2023-04-03T16:33:31;35.00;20.10
12839;DHT22;6486;51.034;5.262;2023-04-03T16:35:56;33.50;20.40
12839;DHT22;6486;51.034;5.262;2023-04-03T16:38:22;31.50;20.40
12839;DHT22;6486;51.034;5.262;2023-04-03T16:40:48;29.10;21.40
12839;DHT22;6486;51.034;5.262;2023-04-03T16:43:15;26.90;22.30
12839;DHT22;6486;51.034;5.262;2023-04-03T16:45:41;25.00;23.30
12839;DHT22;6486;51.034;5.262;2023-04-03T16:48:07;23.60;24.10
12839;DHT22;6486;51.034;5.262;2023-04-03T16:50:32;22.40;24.80
12839;DHT22;6486;51.034;5.262;2023-04-03T16:52:58;21.30;25.40
12839;DHT22;6486;51.034;5.262;2023-04-03T16:55:23;20.40;25.80
12839;DHT22;6486;51.034;5.262;2023-04-03T16:57:49;19.40;26.00
12839;DHT22;6486;51.034;5.262;2023-04-03T17:00:15;18.60;26.60
12839;DHT22;6486;51.034;5.262;2023-04-03T17:02:41;18.40;27.00
12839;DHT22;6486;51.034;5.262;2023-04-03T17:05:07;17.90;27.30
12839;DHT22;6486;51.034;5.262;2023-04-03T17:07:33;17.30;27.80
12839;DHT22;6486;51.034;5.262;2023-04-03T17:09:59;16.90;28.20
12839;DHT22;6486;51.034;5.262;2023-04-03T17:12:25;16.40;28.30
12839;DHT22;6486;51.034;5.262;2023-04-03T17:14:51;16.00;28.70
12839;DHT22;6486;51.034;5.262;2023-04-03T17:17:20;15.80;28.90
12839;DHT22;6486;51.034;5.262;2023-04-03T17:19:46;15.50;29.20
12839;DHT22;6486;51.034;5.262;2023-04-03T17:22:12;15.20;29.50